Time;durP1;ratioP1;P1;durP2;ratioP2;P2;SDS_P1;SDS_P2;PMS_P1;PMS_P2;Temp;Humidity;BMP_temperature;BMP_pressure;BME280_temperature;BME280_humidity;BME280_pressure;Samples;Min_cycle;Max_cycle;Signal;HPM_P1;HPM_P2
2021/08/28 00:02:25;;;;;;;11.02;6.72;;;;;;;11.54;83.11;99429.00;5118389;28;20400;-51
2021/08/28 00:04:53;;;;;;;20.38;6.82;;;;;;;11.54;83.26;99426.38;5118351;28;20054;-51
2021/08/28 00:07:19;;;;;;;14.90;5.90;;;;;;;11.53;82.97;99431.66;5117867;28;20055;-51
2021/08/28 00:09:44;;;;;;;21.15;7.28;;;;;;;11.51;83.45;99431.72;5118219;28;20047;-51
2021/08/28 00:12:10;;;;;;;28.35;11.43;;;;;;;11.50;83.52;99435.25;5118196;28;20048;-51
2021/08/28 00:14:36;;;;;;;26.45;11.95;;;;;;;11.49;83.28;99435.31;5117815;28;20407;-51
2021/08/28 00:17:02;;;;;;;35.95;10.40;;;;;;;11.49;83.24;99432.69;5118087;28;20120;-51
2021/08/28 00:19:28;;;;;;;51.22;9.93;;;;;;;11.45;83.21;99437.19;5117839;28;20050;-51
2021/08/28 00:21:54;;;;;;;50.10;8.70;;;;;;;11.37;83.46;99428.72;5117637;28;20456;-51
2021/08/28 00:24:19;;;;;;;42.50;7.78;;;;;;;11.34;83.33;99431.44;5117971;28;20047;-51
2021/08/28 00:26:45;;;;;;;28.45;5.90;;;;;;;11.33;83.24;99441.06;5117926;28;20426;-51
2021/08/28 00:29:11;;;;;;;8.02;5.95;;;;;;;11.35;83.41;99435.78;5117539;28;20040;-51
2021/08/28 00:31:37;;;;;;;14.68;7.00;;;;;;;11.36;83.37;99434.88;5117832;28;20048;-51
2021/08/28 00:34:02;;;;;;;14.07;6.55;;;;;;;11.35;83.33;99435.78;5117522;28;20078;-51
2021/08/28 00:36:28;;;;;;;10.18;6.13;;;;;;;11.35;83.73;99428.78;5116875;28;20047;-51
2021/08/28 00:38:54;;;;;;;42.75;6.78;;;;;;;11.34;83.49;99431.44;5116815;28;20047;-50
2021/08/28 00:41:20;;;;;;;49.83;8.32;;;;;;;11.32;84.13;99430.66;5117682;28;20388;-51
2021/08/28 00:43:45;;;;;;;9.60;6.30;;;;;;;11.30;84.15;99428.06;5118125;27;20055;-51
2021/08/28 00:46:11;;;;;;;35.70;7.43;;;;;;;11.32;83.89;99425.41;5116417;28;20196;-51
2021/08/28 00:48:37;;;;;;;10.70;6.50;;;;;;;11.31;83.54;99428.91;5116883;28;20039;-50
2021/08/28 00:51:03;;;;;;;15.13;8.43;;;;;;;11.29;83.21;99428.97;5116589;28;20047;-50
2021/08/28 00:53:29;;;;;;;24.02;8.70;;;;;;;11.28;83.08;99436.88;5117304;28;20096;-51
2021/08/28 00:55:54;;;;;;;17.98;8.18;;;;;;;11.27;82.79;99436.03;5116477;28;20044;-51
2021/08/28 00:58:21;;;;;;;9.20;5.18;;;;;;;11.22;83.01;99438.81;5116460;28;20125;-51
2021/08/28 01:00:52;;;;;;;11.95;5.40;;;;;;;11.20;83.30;99437.16;5116419;28;20085;-51
2021/08/28 01:03:23;;;;;;;7.25;5.57;;;;;;;11.20;83.49;99443.25;5116097;28;20433;-51
2021/08/28 01:05:56;;;;;;;13.63;6.43;;;;;;;11.20;83.01;99443.25;5116315;28;20338;-51
2021/08/28 01:08:41;;;;;;;12.18;6.47;;;;;;;11.16;82.78;99433.78;5083848;28;20042;-51
2021/08/28 01:12:06;;;;;;;14.98;6.65;;;;;;;11.14;82.90;99439.97;5101703;28;20059;-51
2021/08/28 01:14:35;;;;;;;13.50;5.63;;;;;;;11.09;82.92;99452.38;5099848;28;20127;-50
2021/08/28 01:17:07;;;;;;;9.23;4.97;;;;;;;11.10;82.93;99444.47;5099808;28;20058;-51
2021/08/28 01:19:36;;;;;;;6.20;3.65;;;;;;;11.07;83.19;99441.94;5099017;28;20092;-50
2021/08/28 01:22:08;;;;;;;5.82;3.58;;;;;;;11.00;83.08;99443.91;5116110;28;20345;-50
2021/08/28 01:24:57;;;;;;;11.60;5.22;;;;;;;11.00;83.46;99449.16;5115774;28;20058;-51
2021/08/28 01:27:52;;;;;;;10.02;4.00;;;;;;;10.97;83.23;99445.78;5089338;28;20349;-50
2021/08/28 01:30:18;;;;;;;7.03;4.18;;;;;;;10.93;82.92;99447.63;5099055;28;20118;-50
2021/08/28 01:32:45;;;;;;;8.35;4.40;;;;;;;10.92;82.52;99448.56;5098371;28;20181;-51
2021/08/28 01:35:11;;;;;;;8.23;4.70;;;;;;;10.90;82.69;99449.50;5098857;28;20409;-51
2021/08/28 01:37:39;;;;;;;7.28;4.45;;;;;;;10.88;82.34;99446.91;5116738;28;20100;-50
2021/08/28 01:40:22;;;;;;;10.85;6.85;;;;;;;10.83;82.06;99442.75;5115602;28;20051;-51
2021/08/28 01:42:57;;;;;;;7.22;5.72;;;;;;;10.76;82.21;99445.56;5116284;28;20039;-50
2021/08/28 01:45:24;;;;;;;6.78;4.78;;;;;;;10.75;82.34;99448.22;5115520;28;20454;-50
2021/08/28 01:47:53;;;;;;;5.57;4.25;;;;;;;10.73;82.08;99456.13;5099811;28;20039;-51
2021/08/28 01:50:23;;;;;;;5.47;4.38;;;;;;;10.73;82.05;99455.28;5099087;28;20062;-50
2021/08/28 01:52:51;;;;;;;6.50;3.70;;;;;;;10.68;81.75;99451.94;5098903;28;20047;-51
2021/08/28 01:55:20;;;;;;;5.93;3.50;;;;;;;10.66;82.06;99458.97;5115434;28;20434;-50
2021/08/28 01:58:06;;;;;;;7.18;3.95;;;;;;;10.61;82.34;99459.13;5115832;28;20060;-51
2021/08/28 02:00:46;;;;;;;15.13;3.17;;;;;;;10.54;81.84;99444.50;5116618;28;20071;-50
2021/08/28 02:03:21;;;;;;;4.43;3.10;;;;;;;10.58;82.14;99442.66;5084486;28;20048;-50
2021/08/28 02:05:48;;;;;;;6.90;4.28;;;;;;;10.56;81.96;99440.06;5116252;28;20051;-51
2021/08/28 02:08:21;;;;;;;13.48;4.70;;;;;;;10.54;82.61;99444.50;5115507;28;20067;-51
2021/08/28 02:10:56;;;;;;;6.07;4.85;;;;;;;10.50;82.90;99441.13;5099177;28;20047;-51
2021/08/28 02:13:38;;;;;;;8.93;5.10;;;;;;;10.44;82.68;99433.47;5099715;28;20051;-51
2021/08/28 02:16:08;;;;;;;12.90;6.85;;;;;;;10.45;82.83;99448.25;5099257;28;20058;-51
2021/08/28 02:18:38;;;;;;;17.73;6.85;;;;;;;10.43;82.33;99444.84;5116407;28;20047;-51
2021/08/28 02:21:17;;;;;;;37.85;9.23;;;;;;;10.41;82.60;99449.25;5115217;28;20056;-50
2021/08/28 02:23:48;;;;;;;31.17;7.63;;;;;;;10.42;82.29;99439.63;5115764;28;20112;-50
2021/08/28 02:26:22;;;;;;;9.70;6.38;;;;;;;10.40;82.66;99446.66;5084188;28;20051;-50
2021/08/28 02:28:56;;;;;;;29.42;7.88;;;;;;;10.41;82.71;99449.25;5098825;28;20353;-50
2021/08/28 02:31:24;;;;;;;11.98;6.10;;;;;;;10.39;82.88;99460.69;5098870;28;20460;-51
2021/08/28 02:33:51;;;;;;;12.50;6.65;;;;;;;10.39;83.07;99458.06;5098275;28;20051;-51
2021/08/28 02:36:19;;;;;;;13.27;8.45;;;;;;;10.34;83.33;99445.13;5115119;28;20357;-51
2021/08/28 02:38:45;;;;;;;13.25;8.32;;;;;;;10.38;83.18;99448.50;5082070;28;20044;-51
2021/08/28 02:41:12;;;;;;;16.58;8.05;;;;;;;10.39;83.03;99451.06;5098545;28;20044;-50
2021/08/28 02:43:38;;;;;;;12.57;8.30;;;;;;;10.38;83.47;99456.34;5115907;28;20401;-51
2021/08/28 02:46:04;;;;;;;23.17;8.57;;;;;;;10.35;83.39;99449.44;5085251;28;20039;-50
2021/08/28 02:48:30;;;;;;;78.45;25.80;;;;;;;10.38;82.92;99465.06;5102432;28;20063;-51
2021/08/28 02:50:59;;;;;;;25.15;11.50;;;;;;;10.37;83.24;99465.13;5102196;28;20051;-51
2021/08/28 02:53:25;;;;;;;25.75;9.30;;;;;;;10.37;83.52;99462.50;5119743;28;20043;-50
2021/08/28 02:55:51;;;;;;;11.88;8.05;;;;;;;10.37;83.70;99459.88;5118618;28;20051;-51
2021/08/28 02:58:17;;;;;;;32.30;6.53;;;;;;;10.36;83.99;99448.53;5118470;28;20044;-51
2021/08/28 03:00:44;;;;;;;9.98;5.82;;;;;;;10.35;83.91;99452.06;5101885;28;20093;-51
2021/08/28 03:03:14;;;;;;;56.00;5.57;;;;;;;10.39;83.96;99450.19;5119530;28;20318;-51
2021/08/28 03:05:40;;;;;;;6.97;4.88;;;;;;;10.39;83.93;99463.28;5118636;28;20134;-51
2021/08/28 03:08:07;;;;;;;63.70;6.55;;;;;;;10.39;83.86;99460.69;5118799;28;20047;-50
2021/08/28 03:10:34;;;;;;;4.35;3.63;;;;;;;10.34;83.63;99457.34;5118579;28;20069;-51
2021/08/28 03:12:59;;;;;;;15.02;7.45;;;;;;;10.38;83.78;99469.44;5101271;28;20048;-50
2021/08/28 03:15:25;;;;;;;21.15;7.55;;;;;;;10.41;83.82;99467.59;5118256;28;20046;-50
2021/08/28 03:18:06;;;;;;;14.07;6.72;;;;;;;10.39;84.27;99465.91;5103190;28;20139;-50
2021/08/28 03:20:33;;;;;;;12.70;5.07;;;;;;;10.39;84.07;99465.91;5084444;28;20055;-50
2021/08/28 03:22:59;;;;;;;7.20;4.35;;;;;;;10.37;84.21;99460.75;5085189;28;20058;-50
2021/08/28 03:25:24;;;;;;;25.63;4.25;;;;;;;10.39;84.22;99469.38;5118273;28;20047;-51
2021/08/28 03:27:51;;;;;;;10.75;4.22;;;;;;;10.39;84.45;99477.22;5084647;28;20422;-51
2021/08/28 03:30:18;;;;;;;5.20;4.30;;;;;;;10.40;84.41;99475.47;5101300;28;20043;-51
2021/08/28 03:32:47;;;;;;;14.43;4.65;;;;;;;10.28;84.47;99459.25;5117882;28;20040;-50
2021/08/28 03:35:13;;;;;;;11.63;4.45;;;;;;;10.38;84.35;99469.44;5101440;28;20047;-50
2021/08/28 03:37:41;;;;;;;4.85;3.60;;;;;;;10.32;84.63;99460.00;5084589;28;20044;-51
2021/08/28 03:40:10;;;;;;;7.47;4.50;;;;;;;10.37;84.73;99462.50;5085304;28;20051;-50
2021/08/28 03:42:38;;;;;;;6.55;3.60;;;;;;;10.34;84.67;99462.59;5117704;28;20331;-51
2021/08/28 03:45:06;;;;;;;7.15;4.25;;;;;;;10.36;84.41;99466.84;5117923;28;20400;-51
2021/08/28 03:47:36;;;;;;;17.30;5.68;;;;;;;10.34;83.94;99460.81;5117732;28;20047;-51
2021/08/28 03:50:03;;;;;;;10.40;5.82;;;;;;;10.34;84.00;99459.97;5118649;28;20055;-51
2021/08/28 03:52:29;;;;;;;57.85;6.00;;;;;;;10.33;84.03;99463.47;5117740;28;20149;-51
2021/08/28 03:54:54;;;;;;;22.55;4.43;;;;;;;10.29;84.24;99460.94;5118503;28;20044;-50
2021/08/28 03:57:20;;;;;;;7.18;4.13;;;;;;;10.27;84.39;99464.53;5117550;28;20051;-50
2021/08/28 03:59:46;;;;;;;36.88;4.93;;;;;;;10.26;84.04;99454.94;5117292;28;20048;-51
2021/08/28 04:02:18;;;;;;;28.80;4.30;;;;;;;10.24;84.22;99460.22;5117389;28;20036;-50
2021/08/28 04:04:48;;;;;;;81.75;4.30;;;;;;;10.23;84.25;99458.47;5118629;28;20052;-50
2021/08/28 04:07:13;;;;;;;5.72;3.30;;;;;;;10.23;83.86;99455.84;5117179;28;20493;-50
2021/08/28 04:09:39;;;;;;;16.45;4.18;;;;;;;10.25;83.94;99458.44;5117033;28;20039;-51
2021/08/28 04:12:06;;;;;;;46.42;3.72;;;;;;;10.26;83.99;99465.41;5117938;28;20054;-50
2021/08/28 04:14:33;;;;;;;9.40;4.07;;;;;;;10.24;84.09;99459.34;5100625;28;20429;-51
2021/08/28 04:16:59;;;;;;;3.42;2.58;;;;;;;10.24;84.11;99460.22;5118145;28;20047;-51
2021/08/28 04:19:25;;;;;;;5.28;3.47;;;;;;;10.23;83.87;99458.47;5117024;28;20070;-51
2021/08/28 04:22:05;;;;;;;5.63;2.33;;;;;;;10.22;83.75;99469.00;5117192;28;20059;-51
2021/08/28 04:24:49;;;;;;;12.68;3.58;;;;;;;10.22;83.85;99472.47;5118012;28;20055;-51
2021/08/28 04:27:49;;;;;;;5.15;3.35;;;;;;;10.19;83.77;99472.56;5116967;28;20055;-51
2021/08/28 04:30:24;;;;;;;3.55;2.75;;;;;;;10.20;83.66;99481.25;5116906;28;20046;-51
2021/08/28 04:32:50;;;;;;;3.75;2.45;;;;;;;10.22;83.96;99476.84;5117203;28;20052;-51
2021/08/28 04:35:15;;;;;;;7.32;2.90;;;;;;;10.24;83.56;99481.16;5116926;28;20360;-51
2021/08/28 04:37:44;;;;;;;3.17;2.15;;;;;;;10.31;83.68;99484.47;5116576;28;20069;-50
2021/08/28 04:40:11;;;;;;;4.00;2.80;;;;;;;10.36;83.77;99489.56;5116855;28;20071;-51
2021/08/28 04:42:36;;;;;;;4.88;2.70;;;;;;;10.39;83.72;99482.47;5117371;28;20043;-51
2021/08/28 04:45:05;;;;;;;4.55;2.83;;;;;;;10.46;83.49;99489.28;5116914;28;20067;-51
2021/08/28 04:47:45;;;;;;;4.60;3.30;;;;;;;10.50;83.58;99485.66;5116612;28;20108;-51
2021/08/28 04:50:11;;;;;;;4.28;2.65;;;;;;;10.54;83.73;99486.41;5117492;28;20396;-51
2021/08/28 04:52:38;;;;;;;4.38;2.90;;;;;;;10.61;83.66;99482.69;5116597;28;20052;-51
2021/08/28 04:55:04;;;;;;;7.80;3.90;;;;;;;10.68;83.88;99492.06;5116538;28;20104;-51
2021/08/28 04:57:30;;;;;;;61.00;19.70;;;;;;;10.75;83.75;99485.75;5116485;28;20399;-51
2021/08/28 04:59:56;;;;;;;54.78;21.80;;;;;;;10.86;83.47;99484.56;5116462;28;20051;-51
2021/08/28 05:02:42;;;;;;;23.67;10.73;;;;;;;10.97;84.15;99485.94;5115759;28;20067;-51
2021/08/28 05:05:09;;;;;;;26.38;9.27;;;;;;;11.19;84.17;99490.50;5115103;28;20052;-51
2021/08/28 05:07:35;;;;;;;35.97;13.32;;;;;;;11.52;84.60;99495.53;5113023;28;20044;-51
2021/08/28 05:10:02;;;;;;;76.07;13.57;;;;;;;11.80;84.18;99493.69;5114305;28;20082;-51
2021/08/28 05:12:29;;;;;;;18.38;6.32;;;;;;;12.06;83.60;99495.41;5114240;28;20051;-51
2021/08/28 05:15:05;;;;;;;10.70;4.47;;;;;;;12.32;82.77;99494.47;5113983;28;20066;-51
2021/08/28 05:17:36;;;;;;;6.28;2.63;;;;;;;12.51;82.11;99499.00;5114658;28;20052;-51
2021/08/28 05:20:03;;;;;;;4.03;2.30;;;;;;;12.69;81.43;99495.69;5114540;28;20062;-51
2021/08/28 05:22:44;;;;;;;19.20;3.35;;;;;;;12.84;81.02;99500.34;5116109;28;20055;-51
2021/08/28 05:25:42;;;;;;;10.40;3.65;;;;;;;12.99;80.84;99498.03;5104785;28;20069;-51
2021/08/28 05:28:08;;;;;;;4.35;2.90;;;;;;;13.15;80.88;99495.63;5115650;28;20126;-51
2021/08/28 05:30:35;;;;;;;4.47;2.15;;;;;;;13.24;80.42;99493.53;5115819;28;20040;-51
2021/08/28 05:33:00;;;;;;;30.33;10.63;;;;;;;13.33;79.99;99497.56;5115676;28;20430;-51
2021/08/28 05:35:26;;;;;;;11.45;5.95;;;;;;;13.45;80.12;99497.03;5115939;28;20047;-51
2021/08/28 05:38:10;;;;;;;9.13;5.32;;;;;;;13.59;80.08;99493.00;5116611;28;20358;-51
2021/08/28 05:40:37;;;;;;;7.30;4.60;;;;;;;13.84;80.22;99495.41;5115562;28;20465;-51
2021/08/28 05:43:03;;;;;;;4.18;3.78;;;;;;;14.15;79.38;99497.56;5115871;28;20055;-51
2021/08/28 05:45:49;;;;;;;5.05;4.03;;;;;;;14.51;80.13;99496.84;5116368;28;20370;-51
2021/08/28 05:48:15;;;;;;;7.88;5.18;;;;;;;14.90;79.67;99494.13;5115475;28;20054;-51
2021/08/28 05:50:41;;;;;;;5.85;3.60;;;;;;;15.38;79.53;99490.88;5115795;28;20046;-51
2021/08/28 05:53:07;;;;;;;5.30;3.95;;;;;;;15.80;77.58;99487.03;5115821;28;20047;-51
2021/08/28 05:55:33;;;;;;;11.40;6.43;;;;;;;16.28;76.98;99473.94;5116003;28;20478;-51
2021/08/28 05:57:58;;;;;;;7.50;4.88;;;;;;;16.75;76.03;99481.97;5115746;28;20048;-51
2021/08/28 06:00:25;;;;;;;6.45;4.05;;;;;;;17.00;72.56;99476.16;5115743;28;20054;-51
2021/08/28 06:03:03;;;;;;;4.50;4.07;;;;;;;17.30;72.16;99485.94;5115342;28;20123;-52
2021/08/28 06:05:30;;;;;;;5.80;4.13;;;;;;;17.70;72.31;99487.09;5115551;28;20502;-51
2021/08/28 06:08:14;;;;;;;7.53;4.85;;;;;;;17.69;69.53;99488.03;5116043;28;20406;-52
2021/08/28 06:10:58;;;;;;;5.55;4.22;;;;;;;18.09;69.60;99485.66;5116532;28;20126;-52
2021/08/28 06:13:46;;;;;;;5.07;4.00;;;;;;;18.51;70.21;99481.31;5115342;28;20082;-51
2021/08/28 06:16:18;;;;;;;5.63;3.88;;;;;;;18.97;69.46;99489.00;5115280;28;20047;-51
2021/08/28 06:18:43;;;;;;;5.65;4.80;;;;;;;19.36;67.05;99484.69;5116090;28;20054;-51
2021/08/28 06:21:09;;;;;;;6.65;4.70;;;;;;;19.61;65.88;99492.72;5119363;28;20055;-52
2021/08/28 06:23:35;;;;;;;6.32;4.65;;;;;;;19.97;66.17;99498.34;5119483;28;20051;-51
2021/08/28 06:26:23;;;;;;;6.50;4.93;;;;;;;20.25;62.92;99492.81;5120219;28;20043;-52
2021/08/28 06:28:50;;;;;;;6.47;4.07;;;;;;;20.39;63.19;99483.00;5119031;28;20043;-52
2021/08/28 06:31:15;;;;;;;4.93;3.45;;;;;;;20.66;63.93;99478.41;5119340;28;20112;-52
2021/08/28 06:33:41;;;;;;;4.68;3.65;;;;;;;20.70;62.91;99482.56;5119290;28;20349;-52
2021/08/28 06:36:08;;;;;;;4.45;3.45;;;;;;;20.66;62.57;99481.06;5102510;28;20035;-52
2021/08/28 06:39:12;;;;;;;3.65;3.28;;;;;;;20.60;62.17;99488.63;5097700;28;20520;-52
2021/08/28 06:41:56;;;;;;;7.53;3.92;;;;;;;20.63;62.86;99486.59;5069505;28;20113;-52
2021/08/28 06:44:40;;;;;;;4.47;3.60;;;;;;;20.34;62.12;99482.47;5113565;28;20058;-52
2021/08/28 06:47:27;;;;;;;3.60;3.20;;;;;;;20.07;62.20;99478.13;5119910;28;20048;-52
2021/08/28 06:50:11;;;;;;;4.25;3.25;;;;;;;20.03;63.02;99487.28;5119183;28;20109;-52
2021/08/28 06:52:55;;;;;;;7.45;3.78;;;;;;;20.01;63.51;99489.19;5119828;28;20035;-52
2021/08/28 06:55:39;;;;;;;5.55;3.03;;;;;;;20.05;64.70;99490.66;5119534;28;20051;-52
2021/08/28 06:58:24;;;;;;;5.90;2.80;;;;;;;20.06;64.40;99485.25;5119389;28;20448;-52
2021/08/28 07:01:08;;;;;;;3.88;2.97;;;;;;;20.06;64.10;99489.72;5119650;28;20063;-52
2021/08/28 07:03:53;;;;;;;9.48;3.55;;;;;;;20.12;63.40;99484.00;5119691;28;20044;-52
2021/08/28 07:06:35;;;;;;;5.37;3.13;;;;;;;20.20;64.28;99488.75;5089736;28;20060;-51
2021/08/28 07:09:02;;;;;;;4.80;2.53;;;;;;;20.58;63.20;99485.25;5119490;28;20067;-51
2021/08/28 07:11:29;;;;;;;3.20;2.80;;;;;;;21.00;61.64;99483.97;5118306;28;20036;-52
2021/08/28 07:13:55;;;;;;;3.72;2.92;;;;;;;21.38;62.73;99482.94;5118535;28;20074;-52
2021/08/28 07:16:21;;;;;;;2.92;2.63;;;;;;;21.69;61.81;99473.50;5119348;28;20112;-52
2021/08/28 07:18:47;;;;;;;2.83;2.40;;;;;;;22.04;60.51;99480.59;5119050;28;20047;-51
2021/08/28 07:21:13;;;;;;;33.17;19.10;;;;;;;22.19;59.36;99482.09;5117973;28;20052;-52
2021/08/28 07:23:46;;;;;;;35.53;20.17;;;;;;;22.24;58.27;99487.91;5118319;28;20040;-52
2021/08/28 07:26:20;;;;;;;13.98;8.13;;;;;;;22.11;57.52;99487.16;5118934;28;20258;-52
2021/08/28 07:28:56;;;;;;;14.13;6.93;;;;;;;22.07;57.90;99481.22;5117954;28;20129;-52
2021/08/28 07:31:40;;;;;;;6.88;4.80;;;;;;;22.15;58.66;99480.59;5117087;28;20116;-52
2021/08/28 07:34:05;;;;;;;3.65;2.90;;;;;;;22.05;58.26;99472.47;5119829;28;20055;-52
2021/08/28 07:36:31;;;;;;;3.53;2.70;;;;;;;21.98;57.90;99484.59;5118683;27;20113;-52
2021/08/28 07:38:58;;;;;;;2.42;1.80;;;;;;;21.84;57.48;99485.66;5117822;28;20113;-52
2021/08/28 07:41:26;;;;;;;2.42;1.98;;;;;;;21.70;57.68;99485.84;5118037;28;20044;-52
2021/08/28 07:43:52;;;;;;;3.90;2.30;;;;;;;21.69;58.12;99486.81;5117944;28;20051;-52
2021/08/28 07:46:18;;;;;;;1.70;1.60;;;;;;;21.58;58.40;99486.75;5117639;28;20047;-52
2021/08/28 07:48:56;;;;;;;5.20;2.75;;;;;;;21.86;58.09;99486.38;5117846;28;20039;-52
2021/08/28 07:51:21;;;;;;;4.95;2.90;;;;;;;22.16;58.38;99488.53;5117843;28;20086;-52
2021/08/28 07:53:47;;;;;;;7.28;2.80;;;;;;;22.28;56.45;99481.38;5117541;28;20035;-52
2021/08/28 07:56:13;;;;;;;2.53;2.17;;;;;;;22.38;56.30;99495.66;5117476;28;20104;-52
2021/08/28 07:58:39;;;;;;;2.80;1.88;;;;;;;22.43;56.98;99494.47;5118797;28;20429;-52
2021/08/28 08:01:05;;;;;;;3.83;2.67;;;;;;;22.54;56.39;99486.47;5117398;28;20044;-52
2021/08/28 08:03:41;;;;;;;2.40;2.10;;;;;;;22.70;56.24;99478.06;5117634;28;20401;-52
2021/08/28 08:06:25;;;;;;;3.22;1.83;;;;;;;22.90;54.09;99476.47;5118368;28;20085;-52
2021/08/28 08:09:10;;;;;;;1.88;1.77;;;;;;;22.91;53.15;99472.81;5118301;28;20132;-52
2021/08/28 08:12:11;;;;;;;2.95;1.33;;;;;;;23.12;54.12;99479.09;5096017;28;20127;-52
2021/08/28 08:14:55;;;;;;;3.25;1.67;;;;;;;23.18;53.87;99478.59;5116866;28;20097;-52
2021/08/28 08:17:39;;;;;;;2.08;1.42;;;;;;;23.21;52.64;99475.69;5118309;28;20059;-52
2021/08/28 08:20:25;;;;;;;3.22;1.80;;;;;;;23.35;54.22;99474.53;5117907;28;20063;-52
2021/08/28 08:23:09;;;;;;;2.90;1.85;;;;;;;23.50;52.26;99467.06;5118354;28;20085;-52
2021/08/28 08:25:48;;;;;;;2.47;1.58;;;;;;;23.77;51.65;99475.44;5117220;28;20043;-52
2021/08/28 08:28:37;;;;;;;1.52;1.02;;;;;;;23.94;49.58;99478.50;5098335;28;20048;-52
2021/08/28 08:31:23;;;;;;;1.10;1.00;;;;;;;23.78;47.60;99479.81;5110060;28;20084;-52
2021/08/28 08:33:49;;;;;;;1.10;0.80;;;;;;;23.76;50.31;99473.75;5114968;28;20035;-52
2021/08/28 08:36:20;;;;;;;1.73;0.80;;;;;;;23.90;48.12;99474.41;5115213;28;20063;-52
2021/08/28 08:38:46;;;;;;;1.63;0.70;;;;;;;23.90;49.97;99479.75;5114624;28;20051;-52
2021/08/28 08:41:12;;;;;;;2.03;1.13;;;;;;;23.76;47.72;99475.59;5114825;28;20052;-52
2021/08/28 08:43:44;;;;;;;;;;;;;;;23.21;47.58;99475.69;5114919;28;20426;-52
2021/08/28 08:46:10;;;;;;;1.33;0.95;;;;;;;23.03;48.46;99475.34;5115618;28;20056;-52
2021/08/28 08:48:36;;;;;;;0.70;0.60;;;;;;;22.77;49.55;99476.59;5114609;28;20434;-52
2021/08/28 08:51:02;;;;;;;1.20;0.95;;;;;;;22.53;50.32;99476.75;5115974;28;20048;-52
2021/08/28 08:53:30;;;;;;;2.17;0.68;;;;;;;22.29;50.71;99474.22;5116581;28;20058;-52
2021/08/28 08:56:11;;;;;;;9.55;6.60;;;;;;;21.99;50.69;99472.09;5117480;28;20083;-52
2021/08/28 08:58:38;;;;;;;11.73;5.82;;;;;;;21.79;51.73;99482.47;5116218;28;20437;-52
2021/08/28 09:01:05;;;;;;;6.80;5.13;;;;;;;21.62;52.60;99481.09;5116445;28;20056;-52
2021/08/28 09:03:51;;;;;;;2.72;1.90;;;;;;;21.51;53.21;99485.53;5117063;28;20369;-52
2021/08/28 09:06:17;;;;;;;2.30;0.90;;;;;;;21.69;53.92;99479.66;5116379;28;20052;-52
2021/08/28 09:08:46;;;;;;;0.70;0.50;;;;;;;22.03;52.67;99477.06;5116257;28;20047;-51
2021/08/28 09:11:25;;;;;;;0.98;0.45;;;;;;;22.42;50.94;99488.28;5116869;28;20108;-52
2021/08/28 09:13:52;;;;;;;0.82;0.45;;;;;;;22.69;49.51;99487.91;5117204;28;20096;-52
2021/08/28 09:16:28;;;;;;;2.95;0.28;;;;;;;23.01;50.96;99471.09;5099227;28;20055;-52
2021/08/28 09:18:54;;;;;;;0.90;0.40;;;;;;;23.37;50.22;99479.72;5117322;28;20047;-52
2021/08/28 09:21:23;;;;;;;2.30;1.30;;;;;;;23.48;48.78;99483.22;5116782;28;20457;-52
2021/08/28 09:23:57;;;;;;;2.33;0.50;;;;;;;23.42;48.67;99485.53;5117006;28;20075;-52
2021/08/28 09:26:35;;;;;;;1.63;0.52;;;;;;;23.36;47.84;99480.72;5116166;28;20052;-52
2021/08/28 09:29:02;;;;;;;3.13;0.65;;;;;;;23.42;48.83;99488.22;5116056;28;20070;-52
2021/08/28 09:31:38;;;;;;;2.03;0.60;;;;;;;23.51;47.50;99488.31;5116890;28;20052;-52
2021/08/28 09:34:22;;;;;;;3.08;1.40;;;;;;;23.36;48.63;99488.72;5116932;28;20040;-52
2021/08/28 09:37:00;;;;;;;2.05;0.45;;;;;;;23.19;48.48;99479.44;5116575;28;20040;-52
2021/08/28 09:39:46;;;;;;;1.20;1.00;;;;;;;22.94;50.14;99484.13;5116865;28;20047;-52
2021/08/28 09:42:18;;;;;;;3.90;1.40;;;;;;;22.92;51.01;99494.06;5116807;28;20054;-52
2021/08/28 09:44:44;;;;;;;1.67;1.08;;;;;;;22.81;50.92;99492.28;5099020;28;20097;-52
2021/08/28 09:47:17;;;;;;;2.17;0.50;;;;;;;22.79;50.81;99496.88;5099889;28;20063;-52
2021/08/28 09:49:44;;;;;;;0.93;0.60;;;;;;;22.72;51.14;99489.50;5116671;28;20047;-52
2021/08/28 09:52:17;;;;;;;2.15;0.50;;;;;;;22.71;51.18;99493.09;5099007;28;20052;-52
2021/08/28 09:54:43;;;;;;;2.88;1.70;;;;;;;22.45;51.00;99452.50;5118640;28;20051;-52
2021/08/28 09:57:09;;;;;;;6.13;4.07;;;;;;;22.64;52.24;99487.41;5120685;28;20043;-52
2021/08/28 09:59:35;;;;;;;5.28;2.00;;;;;;;22.53;51.87;99480.28;5120836;28;20185;-52
2021/08/28 10:02:07;;;;;;;1.50;0.50;;;;;;;22.58;49.88;99493.25;5120611;27;20342;-52
2021/08/28 10:04:51;;;;;;;2.00;0.95;;;;;;;22.55;52.07;99493.47;5120476;28;20491;-51
2021/08/28 10:07:29;;;;;;;2.38;0.70;;;;;;;22.56;52.11;99496.03;5120767;28;20357;-51
2021/08/28 10:10:05;;;;;;;6.07;4.07;;;;;;;22.57;51.01;99489.72;5120665;28;20044;-52
2021/08/28 10:12:32;;;;;;;2.45;2.05;;;;;;;22.56;51.38;99488.03;5120693;28;20373;-52
2021/08/28 10:14:59;;;;;;;3.10;1.45;;;;;;;22.64;52.19;99493.59;5119705;28;20073;-52
2021/08/28 10:17:24;;;;;;;2.38;1.13;;;;;;;22.66;51.13;99497.97;5120549;28;20074;-52
2021/08/28 10:19:52;;;;;;;1.27;1.10;;;;;;;22.60;50.65;99501.97;5119504;28;20438;-52
2021/08/28 10:22:23;;;;;;;1.05;0.63;;;;;;;22.58;51.10;99488.75;5120998;28;20054;-52
2021/08/28 10:24:50;;;;;;;0.80;0.80;;;;;;;22.59;50.79;99492.28;5120429;28;20067;-52
2021/08/28 10:27:16;;;;;;;3.65;0.70;;;;;;;22.64;50.13;99493.59;5119146;28;20048;-52
2021/08/28 10:29:43;;;;;;;6.47;3.85;;;;;;;22.63;50.49;99491.06;5119942;28;20050;-52
2021/08/28 10:32:09;;;;;;;6.03;2.33;;;;;;;22.63;49.89;99491.06;5102514;28;20039;-52
2021/08/28 10:34:35;;;;;;;1.98;1.08;;;;;;;22.61;49.00;99490.31;5119329;28;20116;-52
2021/08/28 10:37:01;;;;;;;1.60;1.20;;;;;;;22.47;47.62;99496.78;5119141;28;20098;-52
2021/08/28 10:39:27;;;;;;;0.77;0.50;;;;;;;22.31;49.58;99489.13;5119792;28;20039;-51
2021/08/28 10:41:53;;;;;;;0.70;0.63;;;;;;;22.33;49.01;99487.19;5119134;28;20120;-52
2021/08/28 10:44:19;;;;;;;0.43;0.32;;;;;;;22.20;49.21;99489.13;5120317;28;20035;-51
2021/08/28 10:46:45;;;;;;;1.10;0.50;;;;;;;22.09;49.86;99487.25;5085534;28;20438;-51
2021/08/28 10:49:21;;;;;;;1.27;0.35;;;;;;;22.11;50.99;99485.31;5119036;28;20047;-52
2021/08/28 10:51:47;;;;;;;2.30;0.40;;;;;;;22.13;50.43;99482.53;5119925;28;20126;-52
2021/08/28 10:54:13;;;;;;;0.50;0.43;;;;;;;22.16;51.11;99475.19;5101595;28;20043;-52
2021/08/28 10:56:46;;;;;;;10.70;2.65;;;;;;;22.10;52.48;99474.78;5118823;28;20043;-51
2021/08/28 10:59:22;;;;;;;1.90;0.85;;;;;;;21.94;52.33;99485.78;5119754;28;20047;-52
2021/08/28 11:02:11;;;;;;;3.17;1.90;;;;;;;21.92;52.20;99479.72;5118945;28;20043;-52
2021/08/28 11:04:42;;;;;;;3.33;1.77;;;;;;;22.02;52.35;99478.03;5114290;28;20051;-52
2021/08/28 11:07:21;;;;;;;0.70;0.40;;;;;;;22.08;51.70;99476.72;5119580;28;20425;-52
2021/08/28 11:10:05;;;;;;;1.00;0.52;;;;;;;22.09;52.17;99473.91;5119188;28;20044;-52
2021/08/28 11:12:51;;;;;;;1.70;0.52;;;;;;;22.10;53.09;99480.97;5119526;27;20078;-52
2021/08/28 11:15:35;;;;;;;5.88;2.92;;;;;;;22.12;52.45;99483.50;5112185;28;20059;-52
2021/08/28 11:18:33;;;;;;;14.90;6.63;;;;;;;22.04;51.67;99485.94;5119353;28;20044;-52
2021/08/28 11:21:05;;;;;;;5.75;3.22;;;;;;;22.04;52.65;99489.44;5109939;27;20056;-52
2021/08/28 11:23:31;;;;;;;2.35;1.30;;;;;;;22.01;52.47;99488.84;5119322;28;20059;-52
2021/08/28 11:25:58;;;;;;;0.85;0.70;;;;;;;22.07;50.00;99485.69;5084444;28;20109;-52
2021/08/28 11:28:35;;;;;;;0.55;0.38;;;;;;;22.17;51.64;99484.88;5101151;28;20446;-52
2021/08/28 11:31:01;;;;;;;1.15;0.40;;;;;;;22.11;51.91;99493.31;5118061;28;20047;-52
2021/08/28 11:33:28;;;;;;;0.47;0.47;;;;;;;22.13;51.53;99494.06;5118777;28;20506;-52
2021/08/28 11:35:57;;;;;;;2.67;0.60;;;;;;;22.19;51.79;99495.41;5119119;28;20126;-52
2021/08/28 11:38:51;;;;;;;0.65;0.60;;;;;;;22.32;53.01;99489.97;5118665;28;20044;-51
2021/08/28 11:41:24;;;;;;;1.27;0.73;;;;;;;22.44;51.51;99496.16;5118921;28;20051;-51
2021/08/28 11:43:51;;;;;;;0.80;0.70;;;;;;;22.62;52.41;99497.38;5118868;28;20453;-51
2021/08/28 11:46:27;;;;;;;0.95;0.60;;;;;;;22.79;50.75;99491.53;5084297;28;20055;-51
2021/08/28 11:48:53;;;;;;;0.98;0.60;;;;;;;22.81;48.92;99494.06;5118711;28;20048;-51
2021/08/28 11:51:22;;;;;;;0.70;0.40;;;;;;;22.80;49.99;99501.22;5118751;28;20074;-52
2021/08/28 11:53:56;;;;;;;1.23;0.80;;;;;;;22.74;49.45;99496.38;5117836;28;20055;-51